sensor_id;sensor_type;location;lat;lon;timestamp;temperature;humidity
79467;SHT30;68933;49.726;9.226;2023-08-31T00:02:04;16.2;74
79467;SHT30;68933;49.726;9.226;2023-08-31T00:04:17;16.2;74
79467;SHT30;68933;49.726;9.226;2023-08-31T00:06:30;16.2;74
79467;SHT30;68933;49.726;9.226;2023-08-31T00:08:43;16.1;73
79467;SHT30;68933;49.726;9.226;2023-08-31T00:10:56;16.1;73
79467;SHT30;68933;49.726;9.226;2023-08-31T00:13:09;16.1;74
79467;SHT30;68933;49.726;9.226;2023-08-31T00:15:22;16.1;74
79467;SHT30;68933;49.726;9.226;2023-08-31T00:17:35;16.1;74
79467;SHT30;68933;49.726;9.226;2023-08-31T00:19:48;16.1;74
79467;SHT30;68933;49.726;9.226;2023-08-31T00:22:01;16.1;74
79467;SHT30;68933;49.726;9.226;2023-08-31T00:24:14;16.1;74
79467;SHT30;68933;49.726;9.226;2023-08-31T00:26:27;16.1;74
79467;SHT30;68933;49.726;9.226;2023-08-31T00:28:40;16;74
79467;SHT30;68933;49.726;9.226;2023-08-31T00:30:53;16;74
79467;SHT30;68933;49.726;9.226;2023-08-31T00:33:06;16;74
79467;SHT30;68933;49.726;9.226;2023-08-31T00:35:19;16;74
79467;SHT30;68933;49.726;9.226;2023-08-31T00:37:32;16;74
79467;SHT30;68933;49.726;9.226;2023-08-31T00:39:45;16;74
79467;SHT30;68933;49.726;9.226;2023-08-31T00:41:58;16;74
79467;SHT30;68933;49.726;9.226;2023-08-31T00:44:11;15.9;74
79467;SHT30;68933;49.726;9.226;2023-08-31T00:46:24;15.9;74
79467;SHT30;68933;49.726;9.226;2023-08-31T00:48:37;15.9;75
79467;SHT30;68933;49.726;9.226;2023-08-31T00:50:50;15.9;75
79467;SHT30;68933;49.726;9.226;2023-08-31T00:53:03;15.9;75
79467;SHT30;68933;49.726;9.226;2023-08-31T00:55:16;15.9;74
79467;SHT30;68933;49.726;9.226;2023-08-31T00:57:29;15.9;74
79467;SHT30;68933;49.726;9.226;2023-08-31T00:59:42;15.9;74
79467;SHT30;68933;49.726;9.226;2023-08-31T01:01:56;15.9;74
79467;SHT30;68933;49.726;9.226;2023-08-31T01:04:12;15.9;74
79467;SHT30;68933;49.726;9.226;2023-08-31T01:06:24;15.9;74
79467;SHT30;68933;49.726;9.226;2023-08-31T01:08:35;15.9;74
79467;SHT30;68933;49.726;9.226;2023-08-31T01:10:48;15.9;74
79467;SHT30;68933;49.726;9.226;2023-08-31T01:13:00;15.9;74
79467;SHT30;68933;49.726;9.226;2023-08-31T01:15:13;15.9;74
79467;SHT30;68933;49.726;9.226;2023-08-31T01:17:26;15.9;74
79467;SHT30;68933;49.726;9.226;2023-08-31T01:19:42;15.8;74
79467;SHT30;68933;49.726;9.226;2023-08-31T01:21:52;15.8;74
79467;SHT30;68933;49.726;9.226;2023-08-31T01:24:05;15.8;75
79467;SHT30;68933;49.726;9.226;2023-08-31T01:26:18;15.8;75
79467;SHT30;68933;49.726;9.226;2023-08-31T01:28:31;15.8;75
79467;SHT30;68933;49.726;9.226;2023-08-31T01:30:44;15.7;74
79467;SHT30;68933;49.726;9.226;2023-08-31T01:32:57;15.7;74
79467;SHT30;68933;49.726;9.226;2023-08-31T01:35:10;15.6;74
79467;SHT30;68933;49.726;9.226;2023-08-31T01:37:26;15.6;74
79467;SHT30;68933;49.726;9.226;2023-08-31T01:39:37;15.6;74
79467;SHT30;68933;49.726;9.226;2023-08-31T01:41:51;15.6;74
79467;SHT30;68933;49.726;9.226;2023-08-31T01:44:02;15.6;74
79467;SHT30;68933;49.726;9.226;2023-08-31T01:46:15;15.6;74
79467;SHT30;68933;49.726;9.226;2023-08-31T01:48:28;15.6;74
79467;SHT30;68933;49.726;9.226;2023-08-31T01:50:41;15.6;74
79467;SHT30;68933;49.726;9.226;2023-08-31T01:52:54;15.5;74
79467;SHT30;68933;49.726;9.226;2023-08-31T01:55:07;15.5;74
79467;SHT30;68933;49.726;9.226;2023-08-31T01:57:20;15.5;74
79467;SHT30;68933;49.726;9.226;2023-08-31T01:59:33;15.5;74
79467;SHT30;68933;49.726;9.226;2023-08-31T02:01:46;15.5;74
79467;SHT30;68933;49.726;9.226;2023-08-31T02:03:59;15.4;74
79467;SHT30;68933;49.726;9.226;2023-08-31T02:06:12;15.4;74
79467;SHT30;68933;49.726;9.226;2023-08-31T02:08:25;15.5;74
79467;SHT30;68933;49.726;9.226;2023-08-31T02:10:38;15.5;74
79467;SHT30;68933;49.726;9.226;2023-08-31T02:12:51;15.4;74
79467;SHT30;68933;49.726;9.226;2023-08-31T02:15:04;15.4;74
79467;SHT30;68933;49.726;9.226;2023-08-31T02:17:17;15.4;74
79467;SHT30;68933;49.726;9.226;2023-08-31T02:21:43;15.4;74
79467;SHT30;68933;49.726;9.226;2023-08-31T02:23:56;15.4;75
79467;SHT30;68933;49.726;9.226;2023-08-31T02:26:10;15.4;75
79467;SHT30;68933;49.726;9.226;2023-08-31T02:28:22;15.3;74
79467;SHT30;68933;49.726;9.226;2023-08-31T02:30:35;15.3;74
79467;SHT30;68933;49.726;9.226;2023-08-31T02:32:48;15.3;74
79467;SHT30;68933;49.726;9.226;2023-08-31T02:35:02;15.3;74
79467;SHT30;68933;49.726;9.226;2023-08-31T02:37:14;15.3;74
79467;SHT30;68933;49.726;9.226;2023-08-31T02:39:27;15.2;75
79467;SHT30;68933;49.726;9.226;2023-08-31T02:41:40;15.2;75
79467;SHT30;68933;49.726;9.226;2023-08-31T02:43:53;15.2;75
79467;SHT30;68933;49.726;9.226;2023-08-31T02:46:06;15.1;75
79467;SHT30;68933;49.726;9.226;2023-08-31T02:48:19;15.1;75
79467;SHT30;68933;49.726;9.226;2023-08-31T02:50:33;15;75
79467;SHT30;68933;49.726;9.226;2023-08-31T02:52:45;15;75
79467;SHT30;68933;49.726;9.226;2023-08-31T02:54:58;15;75
79467;SHT30;68933;49.726;9.226;2023-08-31T02:57:11;15;75
79467;SHT30;68933;49.726;9.226;2023-08-31T02:59:24;15;75
79467;SHT30;68933;49.726;9.226;2023-08-31T03:01:37;15;75
79467;SHT30;68933;49.726;9.226;2023-08-31T03:03:50;15;75
79467;SHT30;68933;49.726;9.226;2023-08-31T03:06:03;15;75
79467;SHT30;68933;49.726;9.226;2023-08-31T03:08:16;15;75
79467;SHT30;68933;49.726;9.226;2023-08-31T03:10:29;15;75
79467;SHT30;68933;49.726;9.226;2023-08-31T03:12:42;14.9;75
79467;SHT30;68933;49.726;9.226;2023-08-31T03:14:55;14.9;75
79467;SHT30;68933;49.726;9.226;2023-08-31T03:17:08;14.8;75
79467;SHT30;68933;49.726;9.226;2023-08-31T03:19:21;14.8;75
79467;SHT30;68933;49.726;9.226;2023-08-31T03:21:34;14.8;75
79467;SHT30;68933;49.726;9.226;2023-08-31T03:23:47;14.8;75
79467;SHT30;68933;49.726;9.226;2023-08-31T03:26:05;14.8;75
79467;SHT30;68933;49.726;9.226;2023-08-31T03:28:13;14.7;75
79467;SHT30;68933;49.726;9.226;2023-08-31T03:30:26;14.7;75
79467;SHT30;68933;49.726;9.226;2023-08-31T03:32:39;14.7;75
79467;SHT30;68933;49.726;9.226;2023-08-31T03:34:52;14.7;75
79467;SHT30;68933;49.726;9.226;2023-08-31T03:37:05;14.7;75
79467;SHT30;68933;49.726;9.226;2023-08-31T03:39:18;14.7;75
79467;SHT30;68933;49.726;9.226;2023-08-31T03:41:31;14.7;75
79467;SHT30;68933;49.726;9.226;2023-08-31T03:43:44;14.7;75
79467;SHT30;68933;49.726;9.226;2023-08-31T03:45:57;14.7;75
79467;SHT30;68933;49.726;9.226;2023-08-31T03:48:10;14.7;75
79467;SHT30;68933;49.726;9.226;2023-08-31T03:50:23;14.7;75
79467;SHT30;68933;49.726;9.226;2023-08-31T03:52:36;14.7;75
79467;SHT30;68933;49.726;9.226;2023-08-31T03:54:49;14.7;75
79467;SHT30;68933;49.726;9.226;2023-08-31T03:57:02;14.7;75
79467;SHT30;68933;49.726;9.226;2023-08-31T03:59:15;14.7;75
79467;SHT30;68933;49.726;9.226;2023-08-31T04:01:28;14.7;75
79467;SHT30;68933;49.726;9.226;2023-08-31T04:03:42;14.7;75
79467;SHT30;68933;49.726;9.226;2023-08-31T04:05:54;14.7;75
79467;SHT30;68933;49.726;9.226;2023-08-31T04:08:07;14.7;75
79467;SHT30;68933;49.726;9.226;2023-08-31T04:10:20;14.7;75
79467;SHT30;68933;49.726;9.226;2023-08-31T04:12:33;14.7;75
79467;SHT30;68933;49.726;9.226;2023-08-31T04:14:46;14.7;75
79467;SHT30;68933;49.726;9.226;2023-08-31T04:16:59;14.8;75
79467;SHT30;68933;49.726;9.226;2023-08-31T04:19:12;14.8;75
79467;SHT30;68933;49.726;9.226;2023-08-31T04:21:25;14.8;75
79467;SHT30;68933;49.726;9.226;2023-08-31T04:23:38;14.8;75
79467;SHT30;68933;49.726;9.226;2023-08-31T04:25:51;14.8;75
79467;SHT30;68933;49.726;9.226;2023-08-31T04:28:04;14.8;75
79467;SHT30;68933;49.726;9.226;2023-08-31T04:30:17;14.8;75
79467;SHT30;68933;49.726;9.226;2023-08-31T04:32:30;14.9;77
79467;SHT30;68933;49.726;9.226;2023-08-31T04:34:43;14.9;77
79467;SHT30;68933;49.726;9.226;2023-08-31T04:36:56;14.9;77
79467;SHT30;68933;49.726;9.226;2023-08-31T04:39:09;14.9;77
79467;SHT30;68933;49.726;9.226;2023-08-31T04:41:22;14.9;77
79467;SHT30;68933;49.726;9.226;2023-08-31T04:43:35;14.8;77
79467;SHT30;68933;49.726;9.226;2023-08-31T04:45:48;14.8;77
79467;SHT30;68933;49.726;9.226;2023-08-31T04:48:01;14.8;75
79467;SHT30;68933;49.726;9.226;2023-08-31T04:50:14;14.8;75
79467;SHT30;68933;49.726;9.226;2023-08-31T04:52:27;14.9;75
79467;SHT30;68933;49.726;9.226;2023-08-31T04:54:40;14.9;75
79467;SHT30;68933;49.726;9.226;2023-08-31T04:56:53;14.9;75
79467;SHT30;68933;49.726;9.226;2023-08-31T04:59:06;14.9;75
79467;SHT30;68933;49.726;9.226;2023-08-31T05:01:19;14.9;75
79467;SHT30;68933;49.726;9.226;2023-08-31T05:03:32;14.9;75
79467;SHT30;68933;49.726;9.226;2023-08-31T05:05:45;14.9;75
79467;SHT30;68933;49.726;9.226;2023-08-31T05:07:58;15;75
79467;SHT30;68933;49.726;9.226;2023-08-31T05:10:11;15;75
79467;SHT30;68933;49.726;9.226;2023-08-31T05:12:24;15;75
79467;SHT30;68933;49.726;9.226;2023-08-31T05:14:37;15;75
79467;SHT30;68933;49.726;9.226;2023-08-31T05:16:50;15;75
79467;SHT30;68933;49.726;9.226;2023-08-31T05:19:03;15;74
79467;SHT30;68933;49.726;9.226;2023-08-31T05:21:16;15;74
79467;SHT30;68933;49.726;9.226;2023-08-31T05:23:29;15;74
79467;SHT30;68933;49.726;9.226;2023-08-31T05:25:42;15;74
79467;SHT30;68933;49.726;9.226;2023-08-31T05:27:55;15;74
79467;SHT30;68933;49.726;9.226;2023-08-31T05:30:08;15.1;73
79467;SHT30;68933;49.726;9.226;2023-08-31T05:32:21;15.1;73
79467;SHT30;68933;49.726;9.226;2023-08-31T05:34:34;15;73
79467;SHT30;68933;49.726;9.226;2023-08-31T05:36:47;15;73
79467;SHT30;68933;49.726;9.226;2023-08-31T05:39:00;14.9;73
79467;SHT30;68933;49.726;9.226;2023-08-31T05:41:13;14.9;73
79467;SHT30;68933;49.726;9.226;2023-08-31T05:43:26;14.9;73
79467;SHT30;68933;49.726;9.226;2023-08-31T05:45:39;14.9;73
79467;SHT30;68933;49.726;9.226;2023-08-31T05:47:52;14.9;73
79467;SHT30;68933;49.726;9.226;2023-08-31T05:50:05;14.9;73
79467;SHT30;68933;49.726;9.226;2023-08-31T05:52:18;14.9;73
79467;SHT30;68933;49.726;9.226;2023-08-31T05:54:31;14.9;73
79467;SHT30;68933;49.726;9.226;2023-08-31T05:56:44;14.9;73
79467;SHT30;68933;49.726;9.226;2023-08-31T05:58:57;14.9;73
79467;SHT30;68933;49.726;9.226;2023-08-31T06:01:10;14.9;73
79467;SHT30;68933;49.726;9.226;2023-08-31T06:03:23;14.9;73
79467;SHT30;68933;49.726;9.226;2023-08-31T06:05:36;14.9;73
79467;SHT30;68933;49.726;9.226;2023-08-31T06:07:49;14.9;73
79467;SHT30;68933;49.726;9.226;2023-08-31T06:10:02;14.9;73
79467;SHT30;68933;49.726;9.226;2023-08-31T06:12:15;14.9;73
79467;SHT30;68933;49.726;9.226;2023-08-31T06:14:28;14.9;73
79467;SHT30;68933;49.726;9.226;2023-08-31T06:16:41;15;72
79467;SHT30;68933;49.726;9.226;2023-08-31T06:18:54;15;72
79467;SHT30;68933;49.726;9.226;2023-08-31T06:21:07;15;71
79467;SHT30;68933;49.726;9.226;2023-08-31T06:23:20;15;71
79467;SHT30;68933;49.726;9.226;2023-08-31T06:25:33;15;71
79467;SHT30;68933;49.726;9.226;2023-08-31T06:27:46;15.1;71
79467;SHT30;68933;49.726;9.226;2023-08-31T06:29:59;15.1;71
79467;SHT30;68933;49.726;9.226;2023-08-31T06:32:12;15.2;71
79467;SHT30;68933;49.726;9.226;2023-08-31T06:34:25;15.2;71
79467;SHT30;68933;49.726;9.226;2023-08-31T06:36:38;15.3;71
79467;SHT30;68933;49.726;9.226;2023-08-31T06:38:51;15.3;71
79467;SHT30;68933;49.726;9.226;2023-08-31T06:41:04;15.2;71
79467;SHT30;68933;49.726;9.226;2023-08-31T06:43:17;15.2;71
79467;SHT30;68933;49.726;9.226;2023-08-31T06:45:30;15.2;71
79467;SHT30;68933;49.726;9.226;2023-08-31T06:47:43;15.2;71
79467;SHT30;68933;49.726;9.226;2023-08-31T06:49:56;15.2;71
79467;SHT30;68933;49.726;9.226;2023-08-31T06:52:09;15.3;70
79467;SHT30;68933;49.726;9.226;2023-08-31T06:54:22;15.3;70
79467;SHT30;68933;49.726;9.226;2023-08-31T06:56:35;15.3;69
79467;SHT30;68933;49.726;9.226;2023-08-31T06:58:48;15.3;69
79467;SHT30;68933;49.726;9.226;2023-08-31T07:01:05;15.5;69
79467;SHT30;68933;49.726;9.226;2023-08-31T07:03:14;15.5;69
79467;SHT30;68933;49.726;9.226;2023-08-31T07:05:27;15.5;69
79467;SHT30;68933;49.726;9.226;2023-08-31T07:07:40;15.7;69
79467;SHT30;68933;49.726;9.226;2023-08-31T07:09:53;15.7;69
79467;SHT30;68933;49.726;9.226;2023-08-31T07:12:06;15.8;69
79467;SHT30;68933;49.726;9.226;2023-08-31T07:14:19;15.8;69
79467;SHT30;68933;49.726;9.226;2023-08-31T07:16:32;16;67
79467;SHT30;68933;49.726;9.226;2023-08-31T07:18:45;16;67
79467;SHT30;68933;49.726;9.226;2023-08-31T07:20:58;16;67
79467;SHT30;68933;49.726;9.226;2023-08-31T07:23:11;16.1;67
79467;SHT30;68933;49.726;9.226;2023-08-31T07:25:24;16.1;67
79467;SHT30;68933;49.726;9.226;2023-08-31T07:27:37;16.2;67
79467;SHT30;68933;49.726;9.226;2023-08-31T07:29:50;16.2;67
79467;SHT30;68933;49.726;9.226;2023-08-31T07:32:03;16.4;67
79467;SHT30;68933;49.726;9.226;2023-08-31T07:34:16;16.4;67
79467;SHT30;68933;49.726;9.226;2023-08-31T07:36:29;16.5;66
79467;SHT30;68933;49.726;9.226;2023-08-31T07:38:42;16.5;66
79467;SHT30;68933;49.726;9.226;2023-08-31T07:40:55;16.5;66
79467;SHT30;68933;49.726;9.226;2023-08-31T07:43:08;16.7;66
79467;SHT30;68933;49.726;9.226;2023-08-31T07:45:21;16.7;66
79467;SHT30;68933;49.726;9.226;2023-08-31T07:47:34;16.9;66
79467;SHT30;68933;49.726;9.226;2023-08-31T07:49:47;16.9;66
79467;SHT30;68933;49.726;9.226;2023-08-31T07:52:00;17;65
79467;SHT30;68933;49.726;9.226;2023-08-31T07:54:18;17;65
79467;SHT30;68933;49.726;9.226;2023-08-31T07:56:26;17.1;65
79467;SHT30;68933;49.726;9.226;2023-08-31T07:58:39;17.1;65
79467;SHT30;68933;49.726;9.226;2023-08-31T08:00:52;17.1;63
79467;SHT30;68933;49.726;9.226;2023-08-31T08:03:05;17.1;63
79467;SHT30;68933;49.726;9.226;2023-08-31T08:05:18;17.1;63
79467;SHT30;68933;49.726;9.226;2023-08-31T08:07:31;17.1;63
79467;SHT30;68933;49.726;9.226;2023-08-31T08:09:44;17.1;63
79467;SHT30;68933;49.726;9.226;2023-08-31T08:11:57;17;63
79467;SHT30;68933;49.726;9.226;2023-08-31T08:14:10;17;63
79467;SHT30;68933;49.726;9.226;2023-08-31T08:16:23;17;63
79467;SHT30;68933;49.726;9.226;2023-08-31T08:18:36;17;63
79467;SHT30;68933;49.726;9.226;2023-08-31T08:20:49;17;63
79467;SHT30;68933;49.726;9.226;2023-08-31T08:23:02;17;63
79467;SHT30;68933;49.726;9.226;2023-08-31T08:25:15;17;63
79467;SHT30;68933;49.726;9.226;2023-08-31T08:27:28;17.1;63
79467;SHT30;68933;49.726;9.226;2023-08-31T08:29:41;17.1;63
79467;SHT30;68933;49.726;9.226;2023-08-31T08:31:54;17.3;62
79467;SHT30;68933;49.726;9.226;2023-08-31T08:34:07;17.3;62
79467;SHT30;68933;49.726;9.226;2023-08-31T08:36:20;17.3;62
79467;SHT30;68933;49.726;9.226;2023-08-31T08:38:33;17.5;61
79467;SHT30;68933;49.726;9.226;2023-08-31T08:40:46;17.5;61
79467;SHT30;68933;49.726;9.226;2023-08-31T08:42:59;17.8;59
79467;SHT30;68933;49.726;9.226;2023-08-31T08:45:13;17.8;59
79467;SHT30;68933;49.726;9.226;2023-08-31T08:47:25;17.8;59
79467;SHT30;68933;49.726;9.226;2023-08-31T08:49:38;18.1;59
79467;SHT30;68933;49.726;9.226;2023-08-31T08:51:51;18.1;59
79467;SHT30;68933;49.726;9.226;2023-08-31T08:54:04;18.3;58
79467;SHT30;68933;49.726;9.226;2023-08-31T08:56:17;18.3;58
79467;SHT30;68933;49.726;9.226;2023-08-31T08:58:30;18.4;57
79467;SHT30;68933;49.726;9.226;2023-08-31T09:00:43;18.4;57
79467;SHT30;68933;49.726;9.226;2023-08-31T09:02:56;18.4;57
79467;SHT30;68933;49.726;9.226;2023-08-31T09:05:09;18.6;57
79467;SHT30;68933;49.726;9.226;2023-08-31T09:07:22;18.6;57
79467;SHT30;68933;49.726;9.226;2023-08-31T09:09:46;18.7;55
79467;SHT30;68933;49.726;9.226;2023-08-31T09:11:48;18.7;55
79467;SHT30;68933;49.726;9.226;2023-08-31T09:14:13;18.7;55
79467;SHT30;68933;49.726;9.226;2023-08-31T09:16:21;18.6;55
79467;SHT30;68933;49.726;9.226;2023-08-31T09:18:28;18.6;55
79467;SHT30;68933;49.726;9.226;2023-08-31T09:20:44;18.6;55
79467;SHT30;68933;49.726;9.226;2023-08-31T09:22:54;18.6;55
79467;SHT30;68933;49.726;9.226;2023-08-31T09:25:06;18.8;55
79467;SHT30;68933;49.726;9.226;2023-08-31T09:27:19;18.8;55
79467;SHT30;68933;49.726;9.226;2023-08-31T09:29:32;18.8;55
79467;SHT30;68933;49.726;9.226;2023-08-31T09:31:45;18.9;54
79467;SHT30;68933;49.726;9.226;2023-08-31T09:33:58;18.9;54
79467;SHT30;68933;49.726;9.226;2023-08-31T09:36:11;19.3;55
79467;SHT30;68933;49.726;9.226;2023-08-31T09:38:24;19.3;55
79467;SHT30;68933;49.726;9.226;2023-08-31T09:40:37;19.6;54
79467;SHT30;68933;49.726;9.226;2023-08-31T09:42:50;19.6;54
79467;SHT30;68933;49.726;9.226;2023-08-31T09:45:03;19.6;54
79467;SHT30;68933;49.726;9.226;2023-08-31T09:47:18;20;54
79467;SHT30;68933;49.726;9.226;2023-08-31T09:49:29;20;54
79467;SHT30;68933;49.726;9.226;2023-08-31T09:51:44;20.1;51
79467;SHT30;68933;49.726;9.226;2023-08-31T09:53:55;20.1;51
79467;SHT30;68933;49.726;9.226;2023-08-31T09:56:08;20.1;51
79467;SHT30;68933;49.726;9.226;2023-08-31T09:58:21;20.1;51
79467;SHT30;68933;49.726;9.226;2023-08-31T10:00:35;20.1;51
79467;SHT30;68933;49.726;9.226;2023-08-31T10:02:47;20.1;51
79467;SHT30;68933;49.726;9.226;2023-08-31T10:05:00;20.1;51
79467;SHT30;68933;49.726;9.226;2023-08-31T10:07:13;20.3;51
79467;SHT30;68933;49.726;9.226;2023-08-31T10:09:26;20.3;51
79467;SHT30;68933;49.726;9.226;2023-08-31T10:11:39;20.4;51
79467;SHT30;68933;49.726;9.226;2023-08-31T10:13:52;20.4;51
79467;SHT30;68933;49.726;9.226;2023-08-31T10:16:05;20.4;51
79467;SHT30;68933;49.726;9.226;2023-08-31T10:18:18;20.4;51
79467;SHT30;68933;49.726;9.226;2023-08-31T10:20:31;20.4;51
79467;SHT30;68933;49.726;9.226;2023-08-31T10:22:44;20.4;51
79467;SHT30;68933;49.726;9.226;2023-08-31T10:24:57;20.4;51
79467;SHT30;68933;49.726;9.226;2023-08-31T10:27:17;20.5;51
79467;SHT30;68933;49.726;9.226;2023-08-31T10:29:26;20.5;51
79467;SHT30;68933;49.726;9.226;2023-08-31T10:31:36;20.5;51
79467;SHT30;68933;49.726;9.226;2023-08-31T10:33:54;20.8;51
79467;SHT30;68933;49.726;9.226;2023-08-31T10:36:02;20.8;51
79467;SHT30;68933;49.726;9.226;2023-08-31T10:38:15;20.9;50
79467;SHT30;68933;49.726;9.226;2023-08-31T10:40:28;20.9;50
79467;SHT30;68933;49.726;9.226;2023-08-31T10:42:41;20.9;50
79467;SHT30;68933;49.726;9.226;2023-08-31T10:44:54;21;50
79467;SHT30;68933;49.726;9.226;2023-08-31T10:47:07;21;50
79467;SHT30;68933;49.726;9.226;2023-08-31T10:49:20;20.7;49
79467;SHT30;68933;49.726;9.226;2023-08-31T10:51:33;20.7;49
79467;SHT30;68933;49.726;9.226;2023-08-31T10:53:46;20.7;49
79467;SHT30;68933;49.726;9.226;2023-08-31T10:55:59;20.7;49
79467;SHT30;68933;49.726;9.226;2023-08-31T10:58:12;20.7;49
79467;SHT30;68933;49.726;9.226;2023-08-31T11:00:56;20.9;49
79467;SHT30;68933;49.726;9.226;2023-08-31T11:02:42;20.9;49
79467;SHT30;68933;49.726;9.226;2023-08-31T11:04:52;21.1;50
79467;SHT30;68933;49.726;9.226;2023-08-31T11:07:22;21.1;50
79467;SHT30;68933;49.726;9.226;2023-08-31T11:09:18;21.1;50
79467;SHT30;68933;49.726;9.226;2023-08-31T11:11:36;21.2;49
79467;SHT30;68933;49.726;9.226;2023-08-31T11:13:43;21.2;49
79467;SHT30;68933;49.726;9.226;2023-08-31T11:15:56;21.1;49
79467;SHT30;68933;49.726;9.226;2023-08-31T11:18:09;21.1;49
79467;SHT30;68933;49.726;9.226;2023-08-31T11:20:24;21.1;49
79467;SHT30;68933;49.726;9.226;2023-08-31T11:22:38;21.2;49
79467;SHT30;68933;49.726;9.226;2023-08-31T11:24:48;21.2;49
79467;SHT30;68933;49.726;9.226;2023-08-31T11:27:01;21.3;49
79467;SHT30;68933;49.726;9.226;2023-08-31T11:29:14;21.3;49
79467;SHT30;68933;49.726;9.226;2023-08-31T11:31:27;21.3;47
79467;SHT30;68933;49.726;9.226;2023-08-31T11:33:40;21.3;47
79467;SHT30;68933;49.726;9.226;2023-08-31T11:35:53;21.3;47
79467;SHT30;68933;49.726;9.226;2023-08-31T11:38:06;21.2;47
79467;SHT30;68933;49.726;9.226;2023-08-31T11:40:19;21.2;47
79467;SHT30;68933;49.726;9.226;2023-08-31T11:42:32;21.3;49
79467;SHT30;68933;49.726;9.226;2023-08-31T11:44:45;21.3;49
79467;SHT30;68933;49.726;9.226;2023-08-31T11:46:58;21.3;47
79467;SHT30;68933;49.726;9.226;2023-08-31T11:49:11;21.3;47
79467;SHT30;68933;49.726;9.226;2023-08-31T11:51:24;21.3;47
79467;SHT30;68933;49.726;9.226;2023-08-31T11:53:37;21.2;47
79467;SHT30;68933;49.726;9.226;2023-08-31T11:55:50;21.2;47
79467;SHT30;68933;49.726;9.226;2023-08-31T11:58:03;21.2;47
79467;SHT30;68933;49.726;9.226;2023-08-31T12:00:16;21.2;47
79467;SHT30;68933;49.726;9.226;2023-08-31T12:02:34;21.2;47
79467;SHT30;68933;49.726;9.226;2023-08-31T12:04:42;21.2;47
79467;SHT30;68933;49.726;9.226;2023-08-31T12:07:01;21.2;47
79467;SHT30;68933;49.726;9.226;2023-08-31T12:09:08;21.4;46
79467;SHT30;68933;49.726;9.226;2023-08-31T12:11:21;21.4;46
79467;SHT30;68933;49.726;9.226;2023-08-31T12:13:34;21.5;46
79467;SHT30;68933;49.726;9.226;2023-08-31T12:16:31;21.5;46
79467;SHT30;68933;49.726;9.226;2023-08-31T12:18:40;21.9;46
79467;SHT30;68933;49.726;9.226;2023-08-31T12:20:53;21.9;46
79467;SHT30;68933;49.726;9.226;2023-08-31T12:23:06;22.6;45
79467;SHT30;68933;49.726;9.226;2023-08-31T12:25:20;22.6;45
79467;SHT30;68933;49.726;9.226;2023-08-31T12:27:32;22.8;42
79467;SHT30;68933;49.726;9.226;2023-08-31T12:29:45;22.8;42
79467;SHT30;68933;49.726;9.226;2023-08-31T12:31:58;22.8;42
79467;SHT30;68933;49.726;9.226;2023-08-31T12:34:11;22.8;42
79467;SHT30;68933;49.726;9.226;2023-08-31T12:36:24;22.8;42
79467;SHT30;68933;49.726;9.226;2023-08-31T12:38:37;22.5;42
79467;SHT30;68933;49.726;9.226;2023-08-31T12:40:50;22.5;42
79467;SHT30;68933;49.726;9.226;2023-08-31T12:43:03;22.5;42
79467;SHT30;68933;49.726;9.226;2023-08-31T12:45:16;22.5;42
79467;SHT30;68933;49.726;9.226;2023-08-31T12:47:29;22.5;42
79467;SHT30;68933;49.726;9.226;2023-08-31T12:49:42;22.5;42
79467;SHT30;68933;49.726;9.226;2023-08-31T12:51:55;22.5;42
79467;SHT30;68933;49.726;9.226;2023-08-31T12:54:08;22.7;42
79467;SHT30;68933;49.726;9.226;2023-08-31T12:56:21;22.7;42
79467;SHT30;68933;49.726;9.226;2023-08-31T12:58:34;22.7;42
79467;SHT30;68933;49.726;9.226;2023-08-31T13:00:47;22.7;42
79467;SHT30;68933;49.726;9.226;2023-08-31T13:03:00;22.7;42
79467;SHT30;68933;49.726;9.226;2023-08-31T13:05:13;23;41
79467;SHT30;68933;49.726;9.226;2023-08-31T13:07:26;23;41
79467;SHT30;68933;49.726;9.226;2023-08-31T13:09:39;23;41
79467;SHT30;68933;49.726;9.226;2023-08-31T13:11:52;23.2;41
79467;SHT30;68933;49.726;9.226;2023-08-31T13:14:05;23.2;41
79467;SHT30;68933;49.726;9.226;2023-08-31T13:16:18;23.9;39
79467;SHT30;68933;49.726;9.226;2023-08-31T13:18:31;23.9;39
79467;SHT30;68933;49.726;9.226;2023-08-31T13:20:51;23.9;39
79467;SHT30;68933;49.726;9.226;2023-08-31T13:22:57;24.3;39
79467;SHT30;68933;49.726;9.226;2023-08-31T13:25:10;24.3;39
79467;SHT30;68933;49.726;9.226;2023-08-31T13:27:23;24.3;38
79467;SHT30;68933;49.726;9.226;2023-08-31T13:29:36;24.3;38
79467;SHT30;68933;49.726;9.226;2023-08-31T13:31:49;23.8;38
79467;SHT30;68933;49.726;9.226;2023-08-31T13:34:02;23.8;38
79467;SHT30;68933;49.726;9.226;2023-08-31T13:36:15;23.5;38
79467;SHT30;68933;49.726;9.226;2023-08-31T13:38:28;23.5;38
79467;SHT30;68933;49.726;9.226;2023-08-31T13:40:41;23.5;38
79467;SHT30;68933;49.726;9.226;2023-08-31T13:42:54;23.9;39
79467;SHT30;68933;49.726;9.226;2023-08-31T13:45:07;23.9;39
79467;SHT30;68933;49.726;9.226;2023-08-31T13:47:20;24.2;38
79467;SHT30;68933;49.726;9.226;2023-08-31T13:49:33;24.2;38
79467;SHT30;68933;49.726;9.226;2023-08-31T13:51:46;24.2;38
79467;SHT30;68933;49.726;9.226;2023-08-31T13:53:59;24.3;38
79467;SHT30;68933;49.726;9.226;2023-08-31T13:56:12;24.3;38
79467;SHT30;68933;49.726;9.226;2023-08-31T13:58:25;24.7;38
79467;SHT30;68933;49.726;9.226;2023-08-31T14:00:38;24.7;38
79467;SHT30;68933;49.726;9.226;2023-08-31T14:02:51;24.7;38
79467;SHT30;68933;49.726;9.226;2023-08-31T14:05:04;25.3;38
79467;SHT30;68933;49.726;9.226;2023-08-31T14:07:17;25.3;38
79467;SHT30;68933;49.726;9.226;2023-08-31T14:09:30;25.6;37
79467;SHT30;68933;49.726;9.226;2023-08-31T14:11:43;25.6;37
79467;SHT30;68933;49.726;9.226;2023-08-31T14:14:01;25.6;37
79467;SHT30;68933;49.726;9.226;2023-08-31T14:16:09;25.6;37
79467;SHT30;68933;49.726;9.226;2023-08-31T14:18:22;25.6;37
79467;SHT30;68933;49.726;9.226;2023-08-31T14:20:35;26;35
79467;SHT30;68933;49.726;9.226;2023-08-31T14:22:48;26;35
79467;SHT30;68933;49.726;9.226;2023-08-31T14:25:01;25.6;35
79467;SHT30;68933;49.726;9.226;2023-08-31T14:27:14;25.6;35
79467;SHT30;68933;49.726;9.226;2023-08-31T14:29:27;25.2;37
79467;SHT30;68933;49.726;9.226;2023-08-31T14:31:40;25.2;37
79467;SHT30;68933;49.726;9.226;2023-08-31T14:33:53;24.6;37
79467;SHT30;68933;49.726;9.226;2023-08-31T14:36:06;24.6;37
79467;SHT30;68933;49.726;9.226;2023-08-31T14:38:19;24.6;37
79467;SHT30;68933;49.726;9.226;2023-08-31T14:40:32;24.6;37
79467;SHT30;68933;49.726;9.226;2023-08-31T14:42:45;24.6;37
79467;SHT30;68933;49.726;9.226;2023-08-31T14:44:58;24.6;37
79467;SHT30;68933;49.726;9.226;2023-08-31T14:47:11;24.6;37
79467;SHT30;68933;49.726;9.226;2023-08-31T14:49:24;24.4;38
79467;SHT30;68933;49.726;9.226;2023-08-31T14:51:37;24.4;38
79467;SHT30;68933;49.726;9.226;2023-08-31T14:53:50;24.4;38
79467;SHT30;68933;49.726;9.226;2023-08-31T14:56:03;24.4;38
79467;SHT30;68933;49.726;9.226;2023-08-31T14:58:16;24.4;38
79467;SHT30;68933;49.726;9.226;2023-08-31T15:00:29;24.6;38
79467;SHT30;68933;49.726;9.226;2023-08-31T15:02:42;24.6;38
79467;SHT30;68933;49.726;9.226;2023-08-31T15:04:55;24.6;38